Uvalde, Texas
Current Conditions -  °F | °C
As of 10:15 AM on Thursday 27 Nov 2014 (Local Time) from KUVA Reporting Station
Clear Clear  
Wind Chill: 58°   Ceiling: Unl
Heat Index: 58°   Visibility: 10mi
Dew Point: 32°   Wind: 14mph
Humidity: 38%   Direction: 80°E
Pressure: 30.5"   Gusts: 23mph
Location:  29.21°N, 99.79°W
Report Text: KUVA 271615Z AUTO 08012G20KT 10SM CLR 14/00 A3050 RMK AO2 T01430002
Loading
Personal Weather Stations






























Interactive Weather Map New forecast layout! Learn more

10-Day Weather Forecast

Advertisements
Track Severe Weather on mobile